Fishtail, MT (59028)

2:33 AM MDT on March 27, 2015 (GMT -0600)
North Davidson Ave., Absarokee | | Change Station
CLOSE
Current Station
Personal Weather Station
Location: Absarokee, MT
Elevation: 4042 ft
Nearby Weather Stations

Elev 4042 ft 45.52 °N, 109.44 °W | Updated 3 seconds ago

Partly Cloudy
Partly Cloudy
48.4 °F
Feels Like 47 °F
N
4.0
Wind Variable Wind from NNW
Gusts 4.0 mph

Today
High -- | Low -- °F
--% Chance of Precip.
Yesterday
High -- | Low -- °F
Precip. -- in
7:08 AM 7:39 PM
Waxing Crescent, 50% visible
Pressure 30.13 in
Visibility 10.0 miles
Clouds Clear
Windchill 47 °F
Dew Point 33 °F
Humidity 55%
Rainfall 0.00 in
Snow Depth Not available.
UV 0 out of 12
Pollen 5.80 out of 12
Air Quality Not available.
Flu Activity Not available.
METAR KLVM 270753Z AUTO 25018G24KT 10SM CLR 11/01 A3018 RMK AO2 PK WND 26027/0724 SLP201 T01110011

More Conditions Fewer Conditions

Pressure 30.13 in
Visibility 10.0 miles
Clouds Clear
Windchill 47 °F
Dew Point 33 °F
Humidity 55%
Rainfall 0.00 in
Snow Depth Not available.
UV 0 out of 12
Pollen 5.80 out of 12
Air Quality Not available.
Flu Activity Not available.
METAR KLVM 270753Z AUTO 25018G24KT 10SM CLR 11/01 A3018 RMK AO2 PK WND 26027/0724 SLP201 T01110011

More Conditions Fewer Conditions

10-Day Weather Forecast

Almanac

Astronomy

Mar. 27, 2015 Rise Set
Actual Time
Civil Twilight
Nautical Twilight
Astronomical Twilight
Moon
Length of Visible Light
Length of Day
Tomorrow will be .
, % of the Moon is Illuminated

Today's Extremes

State Highs State Lows

Community

WunderPhotos

Upload Photos

1,808,705 photos uploaded!

WunderBlogs® & News

Nearby

Air Quality

  Air Quality AQ Index Pollutant
Not available.

Snow Depth

Station Depth Elevation

Earthquake Activity

City Distance Mag. Time & Date
Minimum magnitude displayed is 2.5.

Coastal Water Temperatures

Place Temperature

Stations

Nearby Weather Stations

Station Location Temp. Windchill Dew Point Humidity Wind Precip. Elev Updated Type